Main page
METAR-TAF:

METAR-TAF

Airports :

Zürich Airport

Zürich, Switzerland

latitude: 47-29N, longitude: 008-32E, elevation: 436 m

Current weather observation

The report was made 33 minutes ago, at 14:20 UTC
Wind 4 kt from the East/Northeast, varying between North/Northeast and East/Southeast
Temperature 0°C
Humidity 55%
Pressure 1032 hPa
Visibility 10 km or more
Few clouds at a height of 2500 ft

METAR: LSZH 081420Z 07004KT 030V110 9999 FEW025 00/M08 Q1032 NOSIG

Time: 15:53 (14:53 UTC)

Forecast

The report was made 28 minutes ago, at 14:25 UTC
Forecast valid from 08 at 15 UTC to 09 at 21 UTC
Wind 2 kt from variable directions
Visibility 10 km or more
no clouds below 1500 m and no cumulonimbus
Probability 40%
from 09 at 05 UTC to 09 at 09 UTC
Visibility: 4000 m
Shallow fog
Probability 30%
from 09 at 06 UTC to 09 at 08 UTC
Visibility: 2500 m
patches of fog

TAF: LSZH 081425Z 0815/0921 VRB02KT CAVOK TX01/0815Z TNM07/0906Z TX03/0914Z PROB40 0905/0909 4000 MIFG NSC PROB30 0906/0908 2500 BCFG NSC

Weather observations and forecasts of more than 4000 airports (METAR and TAF reports).

The available stations are represented by yellow and red dots on the map.

Hover mouse over dot to see the name of the station.

Then click to see weather observations and forecasts.

To change the map : click on the green buttons with a black cross to zoom in, on the green button with a dash to zoom out, or on the green arrows for adjacent maps.


METAR-TAF: